Terminal Aerodrome Forecast
Issued by NWS

Home | Current Version | Previous Version | Text Only | Print | Product List | Glossary On
Versions: 1 2 3 4 5 6 7 8 9 10 11 12 13 14 15 16 17 18 19 20
000
FTUS46 KMFR 250521
TAFLMT
TAF
KLMT 250521Z 2506/2606 VRB03KT P6SM SCT150 BKN200
     FM251900 27006KT P6SM SCT120 BKN200
     FM252200 30010KT P6SM SCT050 BKN120
     FM260500 29005KT P6SM SCT150=

USA.gov is the U.S. government's official web portal to all federal, state and local government web resources and services.